Time;durP1;ratioP1;P1;durP2;ratioP2;P2;SDS_P1;SDS_P2;PMS_P1;PMS_P2;Temp;Humidity;BMP_temperature;BMP_pressure;BME280_temperature;BME280_humidity;BME280_pressure;Samples;Min_cycle;Max_cycle;Signal;HPM_P1;HPM_P2
2023/05/01 00:00:08;;;;;;;8.43;7.60;;;15.20;99.90;;;;;;4994854;28;20433;-90
2023/05/01 00:02:35;;;;;;;8.57;7.77;;;15.20;99.90;;;;;;4995815;28;20417;-80
2023/05/01 00:05:04;;;;;;;9.23;7.23;;;15.20;99.90;;;;;;4994732;28;20884;-80
2023/05/01 00:07:30;;;;;;;11.70;8.70;;;15.10;99.90;;;;;;4995821;28;20410;-80
2023/05/01 00:09:59;;;;;;;9.87;7.80;;;15.00;99.90;;;;;;4994714;28;20953;-89
2023/05/01 00:12:25;;;;;;;9.13;8.00;;;15.00;99.90;;;;;;4995952;28;20410;-90
2023/05/01 00:14:53;;;;;;;8.80;7.90;;;14.90;99.90;;;;;;4994424;28;20476;-80
2023/05/01 00:17:19;;;;;;;9.00;7.80;;;14.90;99.90;;;;;;4994569;28;20417;-90
2023/05/01 00:19:44;;;;;;;9.67;7.40;;;14.80;99.90;;;;;;4994317;28;20495;-80
2023/05/01 00:22:10;;;;;;;10.77;8.10;;;14.80;99.90;;;;;;4995524;28;20405;-80
2023/05/01 00:24:36;;;;;;;8.40;7.60;;;14.80;99.90;;;;;;4996483;28;20184;-80
2023/05/01 00:27:02;;;;;;;9.80;8.00;;;14.70;99.90;;;;;;4994939;28;20266;-87
2023/05/01 00:29:28;;;;;;;9.57;8.03;;;14.70;99.90;;;;;;4998819;28;20574;-80
2023/05/01 00:31:54;;;;;;;10.00;9.00;;;14.60;99.90;;;;;;4995239;28;20426;-89
2023/05/01 00:34:20;;;;;;;10.10;9.20;;;14.60;99.90;;;;;;4995334;28;20276;-91
2023/05/01 00:36:45;;;;;;;10.27;8.93;;;14.50;99.90;;;;;;4995837;28;20477;-80
2023/05/01 00:39:11;;;;;;;12.07;9.60;;;14.50;99.90;;;;;;4994091;28;20176;-89
2023/05/01 00:41:37;;;;;;;11.03;9.97;;;14.50;99.90;;;;;;4993947;28;20204;-89
2023/05/01 00:44:02;;;;;;;10.80;9.80;;;14.40;99.90;;;;;;4995387;28;20991;-80
2023/05/01 00:46:29;;;;;;;11.20;9.80;;;14.40;99.90;;;;;;4995091;28;20557;-89
2023/05/01 00:48:56;;;;;;;11.50;10.40;;;14.40;99.90;;;;;;4995518;28;20179;-89
2023/05/01 00:51:23;;;;;;;11.50;10.30;;;14.40;99.90;;;;;;4993738;28;20433;-80
2023/05/01 00:53:49;;;;;;;12.17;10.10;;;14.40;99.90;;;;;;4995462;28;20417;-90
2023/05/01 00:56:16;;;;;;;11.80;9.67;;;14.40;99.90;;;;;;4993748;28;20520;-90
2023/05/01 00:58:43;;;;;;;12.27;10.97;;;14.40;99.90;;;;;;4994004;28;20452;-80
2023/05/01 01:01:09;;;;;;;10.20;9.20;;;14.40;99.90;;;;;;4995074;28;20472;-89
2023/05/01 01:03:34;;;;;;;10.73;9.47;;;14.30;99.90;;;;;;4994783;28;20449;-90
2023/05/01 01:06:06;;;;;;;11.03;9.93;;;14.30;99.90;;;;;;4993562;28;20676;-80
2023/05/01 01:08:42;;;;;;;14.07;10.67;;;14.30;99.90;;;;;;4994727;28;20171;-89
2023/05/01 01:11:25;;;;;;;11.30;9.73;;;14.30;99.90;;;;;;4994848;28;20952;-80
2023/05/01 01:13:57;;;;;;;13.10;9.93;;;14.20;99.90;;;;;;4993623;28;20942;-90
2023/05/01 01:17:08;;;;;;;12.17;10.97;;;14.20;99.90;;;;;;4993671;28;20548;-80
2023/05/01 01:19:42;;;;;;;11.33;9.97;;;14.20;99.90;;;;;;4995334;28;20429;-89
2023/05/01 01:22:14;;;;;;;10.40;9.30;;;14.20;99.90;;;;;;4994721;28;20416;-80
2023/05/01 01:25:05;;;;;;;13.13;9.50;;;14.10;99.90;;;;;;4995367;28;20428;-90
2023/05/01 01:28:12;;;;;;;10.77;9.30;;;14.10;99.90;;;;;;4993468;28;20426;-89
2023/05/01 01:31:00;;;;;;;10.93;9.83;;;14.10;99.90;;;;;;4953262;29;21075;-80
2023/05/01 01:34:00;;;;;;;10.70;9.60;;;14.00;99.90;;;;;;4990106;28;20425;-89
2023/05/01 01:36:40;;;;;;;11.80;9.87;;;14.00;99.90;;;;;;4994629;28;20477;-90
2023/05/01 01:39:38;;;;;;;12.77;10.00;;;13.90;99.90;;;;;;4993331;28;20433;-90
2023/05/01 01:42:10;;;;;;;10.37;9.37;;;13.90;99.90;;;;;;4994439;28;20537;-89
2023/05/01 01:44:46;;;;;;;10.30;9.27;;;13.80;99.90;;;;;;4993502;28;20436;-89
2023/05/01 01:47:14;;;;;;;10.27;9.20;;;13.80;99.90;;;;;;4993550;28;20926;-90
2023/05/01 01:49:45;;;;;;;11.00;9.00;;;13.80;99.90;;;;;;4993413;28;20432;-80
2023/05/01 01:52:14;;;;;;;9.27;8.30;;;13.80;99.90;;;;;;4994697;28;20386;-80
2023/05/01 01:54:48;;;;;;;11.07;8.97;;;13.70;99.90;;;;;;4993276;28;20417;-88
2023/05/01 01:57:17;;;;;;;9.57;8.57;;;13.70;99.90;;;;;;4993254;28;20758;-80
2023/05/01 01:59:45;;;;;;;10.20;8.97;;;13.60;99.90;;;;;;4993062;28;20424;-89
2023/05/01 02:02:12;;;;;;;9.20;8.30;;;13.60;99.90;;;;;;4993033;28;20437;-80
2023/05/01 02:04:39;;;;;;;11.93;9.50;;;13.60;99.90;;;;;;4994106;28;20450;-80
2023/05/01 02:07:06;;;;;;;9.17;8.27;;;13.60;99.90;;;;;;4994151;28;20930;-80
2023/05/01 02:09:34;;;;;;;10.33;8.00;;;13.60;99.90;;;;;;4993146;28;20433;-90
2023/05/01 02:12:03;;;;;;;9.43;7.07;;;13.70;99.90;;;;;;4993040;28;20798;-89
2023/05/01 02:14:29;;;;;;;11.20;7.67;;;13.70;99.90;;;;;;4994119;28;20421;-90
2023/05/01 02:16:57;;;;;;;9.87;7.77;;;13.60;99.90;;;;;;4992829;28;20442;-90
2023/05/01 02:19:25;;;;;;;10.43;7.60;;;13.60;99.90;;;;;;4994672;28;20429;-80
2023/05/01 02:21:52;;;;;;;8.80;7.87;;;13.60;99.90;;;;;;4993041;28;20449;-90
2023/05/01 02:24:21;;;;;;;10.87;8.30;;;13.50;99.90;;;;;;4993209;28;20445;-89
2023/05/01 02:26:53;;;;;;;8.70;7.80;;;13.50;99.90;;;;;;4994006;28;20433;-80
2023/05/01 02:29:19;;;;;;;10.97;8.00;;;13.40;99.90;;;;;;4994138;28;20422;-91
2023/05/01 02:31:44;;;;;;;8.80;7.83;;;13.40;99.90;;;;;;4992688;28;20873;-90
2023/05/01 02:34:11;;;;;;;9.43;8.53;;;13.30;99.90;;;;;;4992929;28;20206;-80
2023/05/01 02:36:36;;;;;;;10.50;8.60;;;13.30;99.90;;;;;;4993838;28;20220;-80
2023/05/01 02:39:02;;;;;;;9.27;8.23;;;13.30;99.90;;;;;;4992630;28;20447;-80
2023/05/01 02:41:31;;;;;;;9.50;8.50;;;13.30;99.90;;;;;;4992818;28;20441;-89
2023/05/01 02:44:03;;;;;;;10.20;8.10;;;13.20;99.90;;;;;;4996530;28;20422;-90
2023/05/01 02:46:32;;;;;;;10.10;9.07;;;13.20;99.90;;;;;;4997437;28;20922;-89
2023/05/01 02:49:00;;;;;;;8.77;7.87;;;13.20;99.90;;;;;;4996204;28;20417;-80
2023/05/01 02:51:26;;;;;;;10.43;8.47;;;13.10;99.90;;;;;;4997220;28;20433;-80
2023/05/01 02:53:54;;;;;;;12.73;8.23;;;13.10;99.90;;;;;;4996340;28;20941;-80
2023/05/01 02:56:20;;;;;;;8.90;8.00;;;13.00;99.90;;;;;;4997222;28;20829;-89
2023/05/01 02:58:48;;;;;;;10.75;9.10;;;13.00;99.90;;;;;;4996057;28;20428;-80
2023/05/01 03:01:14;;;;;;;9.33;8.43;;;13.00;99.90;;;;;;4996987;28;20665;-89
2023/05/01 03:03:39;;;;;;;10.23;8.30;;;13.00;99.90;;;;;;4996949;28;20552;-80
2023/05/01 03:06:05;;;;;;;10.03;8.77;;;13.00;99.90;;;;;;4997019;28;20426;-90
2023/05/01 03:08:30;;;;;;;12.63;8.50;;;12.90;99.90;;;;;;4997084;28;20649;-80
2023/05/01 03:10:56;;;;;;;8.97;8.10;;;12.90;99.90;;;;;;4996273;28;20211;-89
2023/05/01 03:13:22;;;;;;;13.10;7.83;;;12.90;99.90;;;;;;4997143;28;20223;-80
2023/05/01 03:15:47;;;;;;;11.83;8.10;;;12.90;99.90;;;;;;4996702;28;20696;-80
2023/05/01 03:18:13;;;;;;;8.10;7.30;;;12.90;99.90;;;;;;4995577;28;20201;-80
2023/05/01 03:20:39;;;;;;;8.57;7.30;;;12.90;99.90;;;;;;4995412;28;20703;-80
2023/05/01 03:23:05;;;;;;;8.63;7.80;;;12.90;99.90;;;;;;4995546;28;20195;-80
2023/05/01 03:25:31;;;;;;;9.73;8.77;;;12.90;99.90;;;;;;4996614;28;20204;-80
2023/05/01 03:27:57;;;;;;;9.63;8.07;;;12.80;99.90;;;;;;4996695;28;20535;-90
2023/05/01 03:30:22;;;;;;;8.80;7.90;;;12.80;99.90;;;;;;4995411;28;20226;-80
2023/05/01 03:32:51;;;;;;;9.73;8.70;;;12.70;99.90;;;;;;4996216;28;20417;-80
2023/05/01 03:35:16;;;;;;;9.65;7.75;;;12.70;99.90;;;;;;4995396;28;20574;-80
2023/05/01 03:37:42;;;;;;;13.47;7.10;;;12.70;99.90;;;;;;4996384;28;20186;-89
2023/05/01 03:40:08;;;;;;;11.97;8.17;;;12.70;99.90;;;;;;4995215;28;20545;-81
2023/05/01 03:42:34;;;;;;;9.73;7.90;;;12.70;99.90;;;;;;4995143;28;20211;-80
2023/05/01 03:45:00;;;;;;;9.70;8.47;;;12.70;99.90;;;;;;4995081;28;20501;-80
2023/05/01 03:47:26;;;;;;;11.87;7.93;;;12.70;99.90;;;;;;4996088;28;20258;-89
2023/05/01 03:49:52;;;;;;;10.57;8.10;;;12.80;99.90;;;;;;4994911;28;20188;-80
2023/05/01 03:52:17;;;;;;;8.80;7.90;;;12.80;99.90;;;;;;4996233;28;20406;-88
2023/05/01 03:54:44;;;;;;;10.03;9.00;;;12.80;99.90;;;;;;4994453;28;20179;-89
2023/05/01 03:57:09;;;;;;;8.45;7.55;;;12.90;99.90;;;;;;4996013;28;20784;-79
2023/05/01 03:59:36;;;;;;;9.13;7.57;;;12.90;99.90;;;;;;4996528;28;20191;-89
2023/05/01 04:02:02;;;;;;;10.30;8.07;;;12.80;99.90;;;;;;4994659;28;20239;-89
2023/05/01 04:04:28;;;;;;;7.70;6.90;;;12.90;99.90;;;;;;4994534;28;20515;-80
2023/05/01 04:06:54;;;;;;;14.47;7.40;;;12.80;99.90;;;;;;4995945;28;20191;-80
2023/05/01 04:09:19;;;;;;;8.07;7.13;;;12.80;99.90;;;;;;4994733;28;20426;-81
2023/05/01 04:11:46;;;;;;;10.03;7.47;;;13.00;99.90;;;;;;4994414;28;20211;-80
2023/05/01 04:14:11;;;;;;;8.13;7.30;;;13.00;99.90;;;;;;4994411;28;20179;-80
2023/05/01 04:16:37;;;;;;;10.37;7.37;;;13.10;99.90;;;;;;4995538;28;20279;-89
2023/05/01 04:19:03;;;;;;;11.83;8.00;;;13.10;99.90;;;;;;4994387;28;20242;-80
2023/05/01 04:21:29;;;;;;;8.93;7.23;;;13.20;99.90;;;;;;4995731;28;20429;-89
2023/05/01 04:23:54;;;;;;;7.67;6.87;;;13.30;99.90;;;;;;4995219;28;20209;-79
2023/05/01 04:26:20;;;;;;;8.00;7.17;;;13.30;99.90;;;;;;4995438;28;20948;-80
2023/05/01 04:28:46;;;;;;;7.90;7.10;;;13.40;99.90;;;;;;4994199;28;20183;-80
2023/05/01 04:31:12;;;;;;;10.27;7.20;;;13.40;99.90;;;;;;4993907;28;20472;-89
2023/05/01 04:33:38;;;;;;;7.03;6.30;;;13.40;99.90;;;;;;4995523;28;20630;-80
2023/05/01 04:36:04;;;;;;;12.07;7.90;;;13.50;99.90;;;;;;4994134;28;20484;-88
2023/05/01 04:38:32;;;;;;;7.73;6.97;;;13.50;99.90;;;;;;4994135;28;20413;-80
2023/05/01 04:40:58;;;;;;;11.90;7.53;;;13.50;99.90;;;;;;4993818;28;20207;-80
2023/05/01 04:43:23;;;;;;;10.70;7.33;;;13.50;99.90;;;;;;4993771;28;20957;-80
2023/05/01 04:45:49;;;;;;;8.13;6.93;;;13.50;99.90;;;;;;4994879;28;20231;-80
2023/05/01 04:48:15;;;;;;;10.10;7.00;;;13.50;99.90;;;;;;4995262;28;20195;-80
2023/05/01 04:50:40;;;;;;;8.40;6.63;;;13.60;99.90;;;;;;4993791;28;20673;-79
2023/05/01 04:53:06;;;;;;;7.20;6.50;;;13.60;99.90;;;;;;4993605;28;20636;-88
2023/05/01 04:55:32;;;;;;;7.93;5.80;;;13.70;99.90;;;;;;4993608;28;20223;-80
2023/05/01 04:57:57;;;;;;;7.13;5.83;;;13.70;99.90;;;;;;4993579;28;20180;-89
2023/05/01 05:00:23;;;;;;;9.53;6.30;;;13.80;99.90;;;;;;4993750;28;20207;-81
2023/05/01 05:02:49;;;;;;;6.93;6.00;;;13.90;99.90;;;;;;4993626;28;20184;-85
2023/05/01 05:05:14;;;;;;;8.17;6.03;;;14.00;99.90;;;;;;4993230;28;20243;-89
2023/05/01 05:07:40;;;;;;;9.97;5.87;;;14.00;99.90;;;;;;4995576;28;20171;-89
2023/05/01 05:10:06;;;;;;;6.53;5.80;;;14.10;99.90;;;;;;4994323;28;20287;-80
2023/05/01 05:12:32;;;;;;;7.00;6.30;;;14.10;99.90;;;;;;4993355;28;20180;-89
2023/05/01 05:14:57;;;;;;;6.87;5.90;;;14.20;99.90;;;;;;4993418;28;20465;-88
2023/05/01 05:17:23;;;;;;;6.03;5.43;;;14.30;99.90;;;;;;4993442;28;20421;-87
2023/05/01 05:19:49;;;;;;;5.73;5.17;;;14.30;99.90;;;;;;4993226;28;20187;-80
2023/05/01 05:22:15;;;;;;;8.57;6.13;;;14.40;99.90;;;;;;4993445;28;20180;-84
2023/05/01 05:24:41;;;;;;;11.73;5.50;;;14.40;99.90;;;;;;4995133;28;20171;-89
2023/05/01 05:27:07;;;;;;;8.70;5.63;;;14.50;99.90;;;;;;4993378;28;20188;-80
2023/05/01 05:29:33;;;;;;;8.30;4.97;;;14.60;99.90;;;;;;4995061;28;20266;-80
2023/05/01 05:31:59;;;;;;;4.60;4.20;;;14.60;99.90;;;;;;4993341;28;20437;-80
2023/05/01 05:34:25;;;;;;;5.80;4.70;;;14.70;99.90;;;;;;4994986;28;20429;-80
2023/05/01 05:36:51;;;;;;;6.10;5.50;;;14.80;99.90;;;;;;4994241;28;20484;-89
2023/05/01 05:39:16;;;;;;;6.37;5.37;;;14.80;99.90;;;;;;4993684;28;20514;-80
2023/05/01 05:41:42;;;;;;;6.30;5.53;;;14.90;99.90;;;;;;4994422;28;20210;-80
2023/05/01 05:44:08;;;;;;;6.10;4.63;;;15.00;99.90;;;;;;4994860;28;20652;-80
2023/05/01 05:46:34;;;;;;;6.33;4.73;;;15.10;99.90;;;;;;4994305;28;20203;-89
2023/05/01 05:49:00;;;;;;;5.53;5.00;;;15.20;99.90;;;;;;4993291;28;20536;-81
2023/05/01 05:51:26;;;;;;;7.37;4.80;;;15.20;99.90;;;;;;4994480;28;20488;-80
2023/05/01 05:53:52;;;;;;;8.40;5.70;;;15.20;99.90;;;;;;4993717;28;20267;-80
2023/05/01 05:56:18;;;;;;;6.50;4.90;;;15.30;99.90;;;;;;4993121;28;21073;-81
2023/05/01 05:58:43;;;;;;;8.60;5.17;;;15.30;99.90;;;;;;4994212;28;20653;-80
2023/05/01 06:01:10;;;;;;;9.53;5.60;;;15.30;99.90;;;;;;4994377;28;20195;-89
2023/05/01 06:03:36;;;;;;;6.60;4.70;;;15.40;99.90;;;;;;4994142;28;20281;-87
2023/05/01 06:06:02;;;;;;;8.90;4.93;;;15.40;99.90;;;;;;4994099;28;20468;-89
2023/05/01 06:08:28;;;;;;;7.33;5.20;;;15.50;99.90;;;;;;4993365;28;20194;-89
2023/05/01 06:10:53;;;;;;;6.80;4.73;;;15.50;99.90;;;;;;4992748;28;20532;-81
2023/05/01 06:13:19;;;;;;;9.87;5.90;;;15.60;99.90;;;;;;4992943;28;20180;-88
2023/05/01 06:15:45;;;;;;;6.53;5.27;;;15.70;99.90;;;;;;4994009;28;20743;-80
2023/05/01 06:18:11;;;;;;;6.90;5.20;;;15.70;99.90;;;;;;4995759;28;20176;-89
2023/05/01 06:20:37;;;;;;;6.60;5.00;;;15.80;99.90;;;;;;4996777;28;20623;-90
2023/05/01 06:23:03;;;;;;;5.90;5.10;;;15.90;99.90;;;;;;4996672;28;21149;-89
2023/05/01 06:25:29;;;;;;;8.40;5.03;;;16.00;99.90;;;;;;4996514;28;20912;-89
2023/05/01 06:27:55;;;;;;;9.90;5.43;;;16.10;99.90;;;;;;4996578;28;20214;-88
2023/05/01 06:30:20;;;;;;;6.20;5.00;;;16.20;99.90;;;;;;4996550;28;20583;-80
2023/05/01 06:32:46;;;;;;;5.83;4.67;;;16.30;99.90;;;;;;4997640;28;20452;-80
2023/05/01 06:35:13;;;;;;;6.33;5.33;;;16.30;99.90;;;;;;4997526;28;20212;-90
2023/05/01 06:37:38;;;;;;;7.03;4.67;;;16.40;99.90;;;;;;4996480;28;20464;-80
2023/05/01 06:40:08;;;;;;;5.23;4.57;;;16.50;99.90;;;;;;4997622;28;20464;-80
2023/05/01 06:42:35;;;;;;;9.53;5.30;;;16.60;99.90;;;;;;4996263;28;20737;-80
2023/05/01 06:45:00;;;;;;;8.30;5.73;;;16.70;99.90;;;;;;4996136;28;20516;-81
2023/05/01 06:47:26;;;;;;;5.13;4.63;;;16.70;99.90;;;;;;4997300;28;20941;-90
2023/05/01 06:49:51;;;;;;;5.83;5.23;;;16.80;99.90;;;;;;4996314;28;20310;-80
2023/05/01 06:52:17;;;;;;;7.97;5.60;;;16.90;99.90;;;;;;4998488;28;20172;-89
2023/05/01 06:54:43;;;;;;;7.13;5.30;;;17.00;99.90;;;;;;4998161;28;20266;-89
2023/05/01 06:57:08;;;;;;;6.73;6.10;;;17.10;99.90;;;;;;4998039;28;20180;-86
2023/05/01 06:59:34;;;;;;;9.83;4.97;;;17.10;99.90;;;;;;4997940;28;20188;-90
2023/05/01 07:02:00;;;;;;;5.00;4.60;;;17.20;99.90;;;;;;4995907;28;20203;-81
2023/05/01 07:04:25;;;;;;;6.07;5.47;;;17.20;99.90;;;;;;4996102;28;20477;-90
2023/05/01 07:06:51;;;;;;;5.30;4.50;;;17.30;99.90;;;;;;4996973;28;20538;-80
2023/05/01 07:09:16;;;;;;;8.43;5.17;;;17.30;99.90;;;;;;4997332;28;20211;-81
2023/05/01 07:11:42;;;;;;;5.23;4.73;;;17.40;99.90;;;;;;4995786;28;20255;-89
2023/05/01 07:14:08;;;;;;;6.23;5.63;;;17.40;99.90;;;;;;4996121;28;20180;-90
2023/05/01 07:16:33;;;;;;;7.67;4.77;;;17.50;99.90;;;;;;4996652;28;20211;-80
2023/05/01 07:18:59;;;;;;;7.90;5.77;;;17.60;99.90;;;;;;4995754;28;20180;-80
2023/05/01 07:21:25;;;;;;;6.67;4.87;;;17.60;99.90;;;;;;4995645;28;20295;-90
2023/05/01 07:23:50;;;;;;;6.00;4.90;;;17.70;99.80;;;;;;4997129;28;20180;-80
2023/05/01 07:26:16;;;;;;;6.77;5.77;;;17.80;99.80;;;;;;4996600;28;20199;-90
2023/05/01 07:28:42;;;;;;;7.47;4.77;;;17.90;99.40;;;;;;4994845;28;20187;-90
2023/05/01 07:31:11;;;;;;;5.80;5.00;;;18.00;99.30;;;;;;4995615;28;20442;-90
2023/05/01 07:33:37;;;;;;;6.00;5.07;;;18.00;99.20;;;;;;4996875;28;20172;-90
2023/05/01 07:36:03;;;;;;;5.10;4.03;;;18.10;99.10;;;;;;4995334;28;20531;-89
2023/05/01 07:38:29;;;;;;;5.73;5.10;;;18.20;99.50;;;;;;4996761;28;20776;-86
2023/05/01 07:40:55;;;;;;;5.40;4.90;;;18.20;99.50;;;;;;4995058;28;20504;-80
2023/05/01 07:43:22;;;;;;;5.20;4.70;;;18.30;99.40;;;;;;4995283;28;20516;-81
2023/05/01 07:45:59;;;;;;;5.53;4.60;;;18.40;99.20;;;;;;4995227;28;20451;-80
2023/05/01 07:48:26;;;;;;;7.37;4.37;;;18.50;99.00;;;;;;4996538;28;20508;-81
2023/05/01 07:50:52;;;;;;;4.83;4.33;;;18.60;99.20;;;;;;4995034;28;20438;-80
2023/05/01 07:53:18;;;;;;;6.07;4.70;;;18.70;99.20;;;;;;4996968;28;20418;-89
2023/05/01 07:55:44;;;;;;;6.60;5.20;;;18.80;98.90;;;;;;4995527;28;20474;-90
2023/05/01 07:58:10;;;;;;;5.07;4.00;;;18.90;98.50;;;;;;4995184;28;20425;-90
2023/05/01 08:00:36;;;;;;;5.23;4.60;;;18.90;98.70;;;;;;4996194;28;20442;-90
2023/05/01 08:03:02;;;;;;;5.00;4.53;;;19.00;98.60;;;;;;4996100;28;20615;-81
2023/05/01 08:05:27;;;;;;;6.83;4.50;;;19.20;98.30;;;;;;4995721;28;20240;-81
2023/05/01 08:07:53;;;;;;;6.37;5.00;;;19.30;98.50;;;;;;4996016;28;20182;-90
2023/05/01 08:10:18;;;;;;;6.97;4.97;;;19.30;98.40;;;;;;4996031;28;20202;-90
2023/05/01 08:12:44;;;;;;;8.23;4.97;;;19.50;98.30;;;;;;4994716;28;20628;-90
2023/05/01 08:15:10;;;;;;;5.50;4.60;;;19.60;98.30;;;;;;4995791;28;20209;-80
2023/05/01 08:17:36;;;;;;;4.93;4.43;;;19.70;98.20;;;;;;4995886;28;20170;-80
2023/05/01 08:20:02;;;;;;;5.00;4.50;;;19.80;98.20;;;;;;4995663;28;20193;-90
2023/05/01 08:22:28;;;;;;;6.33;4.30;;;19.90;98.00;;;;;;4995687;28;20178;-90
2023/05/01 08:24:54;;;;;;;4.87;4.03;;;19.90;97.80;;;;;;4995638;28;20415;-81
2023/05/01 08:27:20;;;;;;;6.10;5.10;;;20.00;97.90;;;;;;4994378;28;20175;-90
2023/05/01 08:29:46;;;;;;;5.27;4.87;;;20.10;97.70;;;;;;4995997;28;20479;-90
2023/05/01 08:32:13;;;;;;;5.20;4.70;;;20.30;97.80;;;;;;4994294;28;20417;-87
2023/05/01 08:34:38;;;;;;;7.20;4.97;;;20.40;97.70;;;;;;4994359;28;20187;-81
2023/05/01 08:37:04;;;;;;;5.73;4.10;;;20.40;97.40;;;;;;4995289;28;20814;-81
2023/05/01 08:39:30;;;;;;;5.73;5.30;;;20.50;97.30;;;;;;4995788;28;20529;-90
2023/05/01 08:41:57;;;;;;;4.53;3.90;;;20.60;97.30;;;;;;4994345;28;20253;-90
2023/05/01 08:44:26;;;;;;;5.70;4.30;;;20.70;96.80;;;;;;4995949;28;20773;-81
2023/05/01 08:47:06;;;;;;;4.80;4.30;;;20.80;96.80;;;;;;4997114;28;20433;-91
2023/05/01 08:49:35;;;;;;;5.23;4.73;;;20.90;96.50;;;;;;4994295;28;20439;-90
2023/05/01 08:52:02;;;;;;;7.53;4.50;;;20.90;96.30;;;;;;4993767;28;20794;-90
2023/05/01 08:54:30;;;;;;;7.07;4.80;;;21.00;96.00;;;;;;4995718;28;20429;-91
2023/05/01 08:57:02;;;;;;;5.83;4.70;;;21.00;96.20;;;;;;4994799;28;20500;-81
2023/05/01 08:59:30;;;;;;;4.87;4.40;;;21.10;96.10;;;;;;4995013;28;20418;-90
2023/05/01 09:01:59;;;;;;;5.33;4.77;;;21.20;95.90;;;;;;4993861;28;20492;-91
2023/05/01 09:04:27;;;;;;;4.43;4.10;;;21.20;95.50;;;;;;4995095;28;20468;-81
2023/05/01 09:06:55;;;;;;;4.47;4.00;;;21.30;95.60;;;;;;4993670;28;20485;-85
2023/05/01 09:09:20;;;;;;;5.90;4.97;;;21.40;95.60;;;;;;4995303;28;20444;-90
2023/05/01 09:11:46;;;;;;;5.40;4.67;;;21.40;95.30;;;;;;4994915;28;20791;-90
2023/05/01 09:14:12;;;;;;;5.10;4.20;;;21.60;95.20;;;;;;4994737;28;20655;-81
2023/05/01 09:16:37;;;;;;;6.20;4.90;;;21.60;95.10;;;;;;4994848;28;20298;-85
2023/05/01 09:19:03;;;;;;;5.37;4.87;;;21.70;95.20;;;;;;4994637;28;20270;-81
2023/05/01 09:21:30;;;;;;;5.50;4.30;;;21.70;95.00;;;;;;4994579;28;20200;-90
2023/05/01 09:23:56;;;;;;;4.93;4.43;;;21.70;94.90;;;;;;4995168;28;20175;-91
2023/05/01 09:26:22;;;;;;;5.33;4.80;;;21.80;94.80;;;;;;4993404;28;20445;-81
2023/05/01 09:28:50;;;;;;;4.97;4.50;;;21.80;94.60;;;;;;4994772;28;20426;-81
2023/05/01 09:31:29;;;;;;;4.20;3.27;;;21.90;94.70;;;;;;4994717;28;20685;-91
2023/05/01 09:33:59;;;;;;;5.77;4.30;;;21.90;94.30;;;;;;4993719;28;20926;-90
2023/05/01 09:36:26;;;;;;;6.53;4.87;;;21.90;94.30;;;;;;4993478;28;20555;-90
2023/05/01 09:38:52;;;;;;;6.63;4.93;;;21.90;94.10;;;;;;4994877;28;20894;-90
2023/05/01 09:41:19;;;;;;;4.50;4.10;;;22.00;94.10;;;;;;4993323;28;20433;-89
2023/05/01 09:43:53;;;;;;;6.07;4.43;;;22.10;94.10;;;;;;4993649;28;20471;-90
2023/05/01 09:46:20;;;;;;;4.30;3.90;;;22.10;94.50;;;;;;4993599;28;21038;-81
2023/05/01 09:48:56;;;;;;;4.17;3.83;;;22.20;94.30;;;;;;4994502;28;20433;-90
2023/05/01 09:51:33;;;;;;;4.23;3.83;;;22.30;94.00;;;;;;4993708;28;20437;-81
2023/05/01 09:54:01;;;;;;;4.30;3.90;;;22.40;93.70;;;;;;4998119;28;20429;-81
2023/05/01 09:56:31;;;;;;;5.03;3.90;;;22.40;93.20;;;;;;4998288;28;20465;-81
2023/05/01 09:59:12;;;;;;;3.87;3.50;;;22.40;93.20;;;;;;4999037;28;20471;-81
2023/05/01 10:01:44;;;;;;;3.53;3.23;;;22.40;93.10;;;;;;4998521;28;20981;-81
2023/05/01 10:04:10;;;;;;;4.40;3.73;;;22.30;93.10;;;;;;4998090;28;20465;-91
2023/05/01 10:06:37;;;;;;;4.73;3.73;;;22.30;93.00;;;;;;4998434;28;20444;-91
2023/05/01 10:09:03;;;;;;;5.10;3.70;;;22.30;93.20;;;;;;4997084;28;20528;-81
2023/05/01 10:11:29;;;;;;;4.30;3.90;;;22.40;93.10;;;;;;4998068;28;20429;-90
2023/05/01 10:14:09;;;;;;;3.50;3.20;;;22.50;93.10;;;;;;4996930;28;20938;-81
2023/05/01 10:16:37;;;;;;;3.63;3.33;;;22.60;92.80;;;;;;4997898;28;20468;-81
2023/05/01 10:19:04;;;;;;;4.20;3.10;;;22.60;92.80;;;;;;4997019;28;20962;-91
2023/05/01 10:21:32;;;;;;;3.70;3.40;;;22.70;92.80;;;;;;4996832;28;20969;-82
2023/05/01 10:23:59;;;;;;;3.77;3.47;;;22.70;92.60;;;;;;4996976;28;20528;-82
2023/05/01 10:26:25;;;;;;;4.10;3.67;;;22.60;92.40;;;;;;4996571;28;20465;-82
2023/05/01 10:28:51;;;;;;;4.77;3.83;;;22.70;92.40;;;;;;4998237;28;20423;-81
2023/05/01 10:31:17;;;;;;;3.90;3.40;;;22.60;92.40;;;;;;4996930;28;20864;-81
2023/05/01 10:33:45;;;;;;;4.53;4.13;;;22.60;92.20;;;;;;4997851;28;20184;-81
2023/05/01 10:36:36;;;;;;;5.90;4.37;;;22.70;92.40;;;;;;4996528;28;20473;-88
2023/05/01 10:39:02;;;;;;;3.90;3.60;;;22.80;92.30;;;;;;4996657;28;20433;-90
2023/05/01 10:42:05;;;;;;;4.03;3.47;;;22.80;92.10;;;;;;4997760;28;20433;-87
2023/05/01 10:44:33;;;;;;;3.37;3.07;;;22.90;91.50;;;;;;4996744;28;20438;-82
2023/05/01 10:46:59;;;;;;;3.57;3.27;;;22.80;92.00;;;;;;4997522;28;20791;-81
2023/05/01 10:49:44;;;;;;;3.90;3.50;;;22.80;91.90;;;;;;4998066;28;20424;-90
2023/05/01 10:52:10;;;;;;;4.90;3.53;;;22.90;91.70;;;;;;4997491;28;20168;-91
2023/05/01 10:54:36;;;;;;;4.43;4.03;;;23.00;91.60;;;;;;4998046;28;20514;-89
2023/05/01 10:57:02;;;;;;;4.03;3.20;;;23.00;91.60;;;;;;4996092;28;20286;-81
2023/05/01 11:00:03;;;;;;;4.03;3.63;;;22.90;91.50;;;;;;4997784;28;20267;-91
2023/05/01 11:02:29;;;;;;;3.70;3.40;;;22.90;91.70;;;;;;4996132;28;20468;-91
2023/05/01 11:04:55;;;;;;;3.83;3.43;;;22.90;91.60;;;;;;4995833;28;20485;-82
2023/05/01 11:07:22;;;;;;;3.87;3.57;;;23.10;91.60;;;;;;4996439;28;20534;-81
2023/05/01 11:09:57;;;;;;;3.30;3.00;;;23.00;91.50;;;;;;4997905;28;20464;-82
2023/05/01 11:12:45;;;;;;;4.10;3.70;;;23.00;91.30;;;;;;4998907;28;20408;-81
2023/05/01 11:15:12;;;;;;;3.37;3.07;;;23.00;91.30;;;;;;4998196;28;21028;-81
2023/05/01 11:17:40;;;;;;;4.07;3.67;;;23.10;91.40;;;;;;4998094;28;20895;-81
2023/05/01 11:20:10;;;;;;;6.07;5.57;;;23.20;91.10;;;;;;4997558;28;20445;-91
2023/05/01 11:22:38;;;;;;;9.13;3.63;;;23.20;91.00;;;;;;4997136;28;20839;-91
2023/05/01 11:25:18;;;;;;;5.70;3.90;;;23.20;90.60;;;;;;4995627;28;20786;-90
2023/05/01 11:27:48;;;;;;;4.10;3.80;;;23.30;90.20;;;;;;4995531;28;20446;-81
2023/05/01 11:30:15;;;;;;;3.87;3.47;;;23.40;90.10;;;;;;4995597;28;20528;-82
2023/05/01 11:32:44;;;;;;;3.10;2.90;;;23.50;90.30;;;;;;4996989;28;20429;-90
2023/05/01 11:35:28;;;;;;;3.90;3.60;;;23.50;90.10;;;;;;4995314;28;20495;-91
2023/05/01 11:37:54;;;;;;;9.20;4.57;;;23.60;90.20;;;;;;4996534;28;20432;-88
2023/05/01 11:40:26;;;;;;;4.37;3.60;;;23.60;89.70;;;;;;4995340;28;20470;-91
2023/05/01 11:43:00;;;;;;;4.90;3.40;;;23.60;90.00;;;;;;4996563;28;20740;-91
2023/05/01 11:45:26;;;;;;;4.13;3.60;;;23.70;89.50;;;;;;4995400;28;20528;-91
2023/05/01 11:47:52;;;;;;;4.30;3.93;;;23.80;89.60;;;;;;4996579;28;20522;-81
2023/05/01 11:50:20;;;;;;;4.57;3.70;;;23.80;89.40;;;;;;4995205;28;20212;-90
2023/05/01 11:52:53;;;;;;;3.50;3.20;;;23.90;89.00;;;;;;4995057;28;20447;-81
2023/05/01 11:55:39;;;;;;;4.30;3.53;;;23.90;89.40;;;;;;4996036;28;20468;-82
2023/05/01 11:58:05;;;;;;;6.53;3.57;;;24.00;90.00;;;;;;4996062;28;20783;-90
2023/05/01 12:00:37;;;;;;;3.73;3.27;;;24.00;89.30;;;;;;4996193;28;20840;-81
2023/05/01 12:03:07;;;;;;;3.73;2.87;;;24.10;88.60;;;;;;4994999;28;20430;-91
2023/05/01 12:05:37;;;;;;;3.93;3.53;;;24.00;89.00;;;;;;4994790;28;20967;-81
2023/05/01 12:08:13;;;;;;;3.37;3.07;;;23.90;89.00;;;;;;4996043;28;20522;-81
2023/05/01 12:10:41;;;;;;;3.60;3.30;;;23.90;88.80;;;;;;4994841;28;20445;-88
2023/05/01 12:13:09;;;;;;;3.53;3.30;;;24.00;88.60;;;;;;4995292;28;20966;-91
2023/05/01 12:15:37;;;;;;;4.37;3.67;;;24.00;89.00;;;;;;4994717;28;20481;-82
2023/05/01 12:18:04;;;;;;;4.10;3.70;;;24.00;88.90;;;;;;4995733;28;20452;-90
2023/05/01 12:20:40;;;;;;;6.30;3.23;;;24.10;88.60;;;;;;4995743;28;20433;-81
2023/05/01 12:23:07;;;;;;;3.77;3.47;;;24.10;88.40;;;;;;4995898;28;20414;-82
2023/05/01 12:25:33;;;;;;;5.83;3.77;;;24.20;88.20;;;;;;4994099;28;20541;-87
2023/05/01 12:28:01;;;;;;;3.80;3.40;;;24.20;88.30;;;;;;4995680;28;20406;-87
2023/05/01 12:30:28;;;;;;;3.50;3.20;;;24.20;85.70;;;;;;4994301;28;20493;-81
2023/05/01 12:32:57;;;;;;;3.40;3.20;;;24.20;86.60;;;;;;4994402;28;20912;-91
2023/05/01 12:35:29;;;;;;;3.30;2.93;;;24.20;87.00;;;;;;4994252;28;20527;-81
2023/05/01 12:37:56;;;;;;;3.97;2.70;;;24.30;87.70;;;;;;4995781;28;20416;-90
2023/05/01 12:40:22;;;;;;;4.10;3.80;;;24.30;88.00;;;;;;4995346;28;20527;-81
2023/05/01 12:42:57;;;;;;;3.27;2.97;;;24.20;87.20;;;;;;4995357;28;20503;-82
2023/05/01 12:45:24;;;;;;;4.00;3.70;;;24.30;86.00;;;;;;4995181;28;20783;-90
2023/05/01 12:47:50;;;;;;;3.93;3.63;;;24.40;86.20;;;;;;4994057;28;20421;-90
2023/05/01 12:50:16;;;;;;;4.00;3.70;;;24.40;86.20;;;;;;4994070;28;20816;-89